createdAt,value
2023-03-21T00:01:54.313Z,17.85
2023-03-21T00:04:22.966Z,13.43
2023-03-21T00:06:49.706Z,32.08
2023-03-21T00:09:16.540Z,12.57
2023-03-21T00:11:43.315Z,26.92
2023-03-21T00:14:14.451Z,26.60
2023-03-21T00:16:41.612Z,28.10
2023-03-21T00:19:09.737Z,21.95
2023-03-21T00:21:59.242Z,21.98
2023-03-21T00:24:25.460Z,28.60
2023-03-21T00:26:52.063Z,23.95
2023-03-21T00:29:18.998Z,15.77
2023-03-21T00:31:45.538Z,22.45
2023-03-21T00:36:39.645Z,23.95
2023-03-21T00:39:06.366Z,24.48
2023-03-21T00:41:45.930Z,25.42
2023-03-21T00:44:15.957Z,15.13
2023-03-21T00:46:54.186Z,27.02
2023-03-21T00:49:27.719Z,14.23
2023-03-21T00:51:57.146Z,4.32
2023-03-21T00:54:23.739Z,23.77
2023-03-21T00:56:50.218Z,25.02
2023-03-21T00:59:17.303Z,18.48
2023-03-21T01:01:46.537Z,15.15
2023-03-21T01:04:16.637Z,12.88
2023-03-21T01:06:44.566Z,3.60
2023-03-21T01:09:26.137Z,21.30
2023-03-21T01:11:53.644Z,21.35
2023-03-21T01:14:23.702Z,32.25
2023-03-21T01:16:52.855Z,23.33
2023-03-21T01:19:30.950Z,12.98
2023-03-21T01:22:04.437Z,12.30
2023-03-21T01:24:31.264Z,6.97
2023-03-21T01:26:58.779Z,12.23
2023-03-21T01:29:25.226Z,18.88
2023-03-21T01:31:51.698Z,6.47
2023-03-21T01:34:18.218Z,14.05
2023-03-21T01:36:45.022Z,18.83
2023-03-21T01:39:11.575Z,15.95
2023-03-21T01:41:43.493Z,15.00
2023-03-21T01:44:20.056Z,19.00
2023-03-21T01:47:11.602Z,6.55
2023-03-21T01:49:48.528Z,18.27
2023-03-21T01:52:35.334Z,11.75
2023-03-21T01:55:06.925Z,15.93
2023-03-21T01:57:54.937Z,21.42
2023-03-21T02:00:29.566Z,8.93
2023-03-21T02:03:06.164Z,10.10
2023-03-21T02:05:59.120Z,30.83
2023-03-21T02:08:38.374Z,6.53
2023-03-21T02:11:07.029Z,24.10
2023-03-21T02:13:33.493Z,10.77
2023-03-21T02:16:17.128Z,21.73
2023-03-21T02:19:02.273Z,22.45
2023-03-21T02:22:05.696Z,3.80
2023-03-21T02:24:48.759Z,19.13
2023-03-21T02:30:20.213Z,26.13
2023-03-21T02:33:02.019Z,27.08
2023-03-21T02:38:01.831Z,27.65
2023-03-21T02:40:43.270Z,15.18
2023-03-21T02:43:23.398Z,13.23
2023-03-21T02:46:08.558Z,8.82
2023-03-21T02:48:50.274Z,25.58
2023-03-21T02:51:21.100Z,26.95
2023-03-21T02:54:13.039Z,8.75
2023-03-21T02:56:41.379Z,14.77
2023-03-21T02:59:08.801Z,24.10
2023-03-21T03:01:35.543Z,8.93
2023-03-21T03:04:02.122Z,20.63
2023-03-21T03:06:42.032Z,15.98
2023-03-21T03:09:48.167Z,18.92
2023-03-21T03:12:34.249Z,18.20
2023-03-21T03:15:28.364Z,21.95
2023-03-21T03:18:27.701Z,9.25
2023-03-21T03:21:27.856Z,18.85
2023-03-21T03:24:23.583Z,31.98
2023-03-21T03:26:59.191Z,31.42
2023-03-21T03:29:28.622Z,26.63
2023-03-21T03:32:03.715Z,9.73
2023-03-21T03:34:34.771Z,26.73
2023-03-21T03:37:05.335Z,27.08
2023-03-21T03:39:43.691Z,15.07
2023-03-21T03:42:27.900Z,24.13
2023-03-21T03:44:56.156Z,31.30
2023-03-21T03:47:59.414Z,18.02
2023-03-21T03:50:38.250Z,26.98
2023-03-21T03:53:20.178Z,25.77
2023-03-21T03:55:49.191Z,27.45
2023-03-21T03:58:23.826Z,26.80
2023-03-21T04:00:52.441Z,29.42
2023-03-21T04:03:19.026Z,31.17
2023-03-21T04:05:48.141Z,27.10
2023-03-21T04:08:15.463Z,28.75
2023-03-21T04:10:42.916Z,25.98
2023-03-21T04:13:09.688Z,25.08
2023-03-21T04:15:36.327Z,27.35
2023-03-21T04:18:03.354Z,16.40
2023-03-21T04:20:36.490Z,31.17
2023-03-21T04:23:05.000Z,28.23
2023-03-21T04:25:35.033Z,18.63
2023-03-21T04:28:02.492Z,28.10
2023-03-21T04:30:29.281Z,26.30
2023-03-21T04:33:01.039Z,21.38
2023-03-21T04:35:28.461Z,26.27
2023-03-21T04:37:55.854Z,26.25
2023-03-21T04:40:22.420Z,25.77
2023-03-21T04:42:49.084Z,27.80
2023-03-21T04:45:16.689Z,27.30
2023-03-21T04:47:43.253Z,22.52
2023-03-21T04:50:11.045Z,28.88
2023-03-21T04:52:37.523Z,27.10
2023-03-21T04:55:04.441Z,27.58
2023-03-21T04:57:31.045Z,30.33
2023-03-21T04:59:57.463Z,27.73
2023-03-21T05:02:23.972Z,27.48
2023-03-21T05:04:50.608Z,28.77
2023-03-21T05:07:17.164Z,25.08
2023-03-21T05:09:43.622Z,27.85
2023-03-21T05:12:10.051Z,27.45
2023-03-21T05:14:36.545Z,26.95
2023-03-21T05:17:05.212Z,31.50
2023-03-21T05:19:35.889Z,24.52
2023-03-21T05:22:08.602Z,26.63
2023-03-21T05:24:37.393Z,26.20
2023-03-21T05:27:03.874Z,28.92
2023-03-21T05:29:32.691Z,23.85
2023-03-21T05:32:00.958Z,26.10
2023-03-21T05:34:28.315Z,29.23
2023-03-21T05:36:55.233Z,26.83
2023-03-21T05:39:21.886Z,26.02
2023-03-21T05:41:48.409Z,32.88
2023-03-21T05:44:14.862Z,27.15
2023-03-21T05:46:41.460Z,25.73
2023-03-21T05:49:07.905Z,25.98
2023-03-21T05:51:34.439Z,32.50
2023-03-21T05:54:00.880Z,23.35
2023-03-21T05:56:27.362Z,23.20
2023-03-21T05:58:53.944Z,24.40
2023-03-21T06:01:20.476Z,26.83
2023-03-21T06:03:47.024Z,27.20
2023-03-21T06:06:13.525Z,31.30
2023-03-21T06:08:40.150Z,28.33
2023-03-21T06:11:19.397Z,24.20
2023-03-21T06:13:45.909Z,26.05
2023-03-21T06:16:12.790Z,25.65
2023-03-21T06:18:39.370Z,32.00
2023-03-21T06:21:06.083Z,28.77
2023-03-21T06:23:32.686Z,30.45
2023-03-21T06:25:59.168Z,36.30
2023-03-21T06:28:25.740Z,25.83
2023-03-21T06:30:52.431Z,27.60
2023-03-21T06:33:18.941Z,27.67
2023-03-21T06:35:51.274Z,29.15
2023-03-21T06:38:17.823Z,32.88
2023-03-21T06:40:46.949Z,29.55
2023-03-21T06:43:14.169Z,33.03
2023-03-21T06:45:40.960Z,30.90
2023-03-21T06:48:09.274Z,30.00
2023-03-21T06:50:36.142Z,30.05
2023-03-21T06:53:02.831Z,31.73
2023-03-21T06:55:29.381Z,29.67
2023-03-21T06:57:57.540Z,30.75
2023-03-21T07:00:24.632Z,30.48
2023-03-21T07:02:51.824Z,32.38
2023-03-21T07:05:18.489Z,28.17
2023-03-21T07:07:45.035Z,31.58
2023-03-21T07:10:11.794Z,33.05
2023-03-21T07:12:38.283Z,28.15
2023-03-21T07:15:07.206Z,34.20
2023-03-21T07:17:34.184Z,30.25
2023-03-21T07:20:00.653Z,28.90
2023-03-21T07:22:27.193Z,29.80
2023-03-21T07:25:04.398Z,24.25
2023-03-21T07:27:31.975Z,25.20
2023-03-21T07:29:58.526Z,27.48
2023-03-21T07:32:29.859Z,21.15
2023-03-21T07:34:56.632Z,29.48
2023-03-21T07:37:24.007Z,16.02
2023-03-21T07:39:51.457Z,25.33
2023-03-21T07:42:18.740Z,20.02
2023-03-21T07:44:45.256Z,20.20
2023-03-21T07:47:11.735Z,7.10
2023-03-21T07:49:38.243Z,24.02
2023-03-21T07:52:06.754Z,12.35
2023-03-21T07:54:33.498Z,26.48
2023-03-21T07:57:00.058Z,12.43
2023-03-21T07:59:26.696Z,24.35
2023-03-21T08:01:53.164Z,24.10
2023-03-21T08:04:19.906Z,24.05
2023-03-21T08:06:46.390Z,10.00
2023-03-21T08:09:12.941Z,30.45
2023-03-21T08:11:40.635Z,8.75
2023-03-21T08:14:07.135Z,21.83
2023-03-21T08:16:33.748Z,2.60
2023-03-21T08:19:00.292Z,25.05
2023-03-21T08:21:27.521Z,10.80
2023-03-21T08:23:54.292Z,14.45
2023-03-21T08:26:21.339Z,20.63
2023-03-21T08:28:47.965Z,11.63
2023-03-21T08:31:15.056Z,17.17
2023-03-21T08:33:41.580Z,22.98
2023-03-21T08:36:08.725Z,30.02
2023-03-21T08:38:35.890Z,26.35
2023-03-21T08:41:02.939Z,23.73
2023-03-21T08:43:29.539Z,21.10
2023-03-21T08:45:56.474Z,17.60
2023-03-21T08:48:23.549Z,6.90
2023-03-21T08:50:50.316Z,19.95
2023-03-21T08:53:16.849Z,15.02
2023-03-21T08:55:44.392Z,23.80
2023-03-21T08:58:11.310Z,20.52
2023-03-21T09:00:38.123Z,20.27
2023-03-21T09:03:05.070Z,8.77
2023-03-21T09:05:31.924Z,17.55
2023-03-21T09:07:58.503Z,20.05
2023-03-21T09:10:25.027Z,19.83
2023-03-21T09:12:53.290Z,10.18
2023-03-21T09:15:21.588Z,23.25
2023-03-21T09:17:52.439Z,14.90
2023-03-21T09:20:31.214Z,21.10
2023-03-21T09:22:59.137Z,17.40
2023-03-21T09:25:30.995Z,11.98
2023-03-21T09:27:58.157Z,18.95
2023-03-21T09:30:26.498Z,11.90
2023-03-21T09:32:55.541Z,16.33
2023-03-21T09:35:22.652Z,9.82
2023-03-21T09:37:49.941Z,13.35
2023-03-21T09:40:58.176Z,10.30
2023-03-21T09:44:03.643Z,14.38
2023-03-21T09:46:55.076Z,13.88
2023-03-21T09:49:31.346Z,15.30
2023-03-21T09:52:05.569Z,15.57
2023-03-21T09:54:43.899Z,16.30
2023-03-21T09:57:36.452Z,20.55
2023-03-21T10:00:14.400Z,17.30
2023-03-21T10:02:47.179Z,23.75
2023-03-21T10:05:26.068Z,18.77
2023-03-21T10:08:07.109Z,15.55
2023-03-21T10:10:48.066Z,2.30
2023-03-21T10:13:23.725Z,3.53
2023-03-21T10:15:50.370Z,10.55
2023-03-21T10:18:24.822Z,18.15
2023-03-21T10:20:52.171Z,10.20
2023-03-21T10:23:22.657Z,20.25
2023-03-21T10:25:54.925Z,23.15
2023-03-21T10:28:27.158Z,17.63
2023-03-21T10:31:02.264Z,18.55
2023-03-21T10:33:38.718Z,5.13
2023-03-21T10:36:11.561Z,20.27
2023-03-21T10:38:43.529Z,9.40
2023-03-21T10:41:11.527Z,19.38
2023-03-21T10:43:40.945Z,20.75
2023-03-21T10:46:19.050Z,6.97
2023-03-21T10:48:52.423Z,11.75
2023-03-21T10:51:27.683Z,15.38
2023-03-21T10:53:57.804Z,20.90
2023-03-21T10:56:29.335Z,11.23
2023-03-21T10:59:01.418Z,7.30
2023-03-21T11:01:41.266Z,4.85
2023-03-21T11:04:09.502Z,7.45
2023-03-21T11:06:40.822Z,9.45
2023-03-21T11:09:13.187Z,4.65
2023-03-21T11:12:11.001Z,21.13
2023-03-21T11:14:43.249Z,9.23
2023-03-21T11:17:22.212Z,6.43
2023-03-21T11:19:49.901Z,12.15
2023-03-21T11:22:18.390Z,18.90
2023-03-21T11:24:51.382Z,13.90
2023-03-21T11:27:18.478Z,18.23
2023-03-21T11:29:51.200Z,14.65
2023-03-21T11:32:22.470Z,15.75
2023-03-21T11:35:11.115Z,15.25
2023-03-21T11:37:37.524Z,13.32
2023-03-21T11:40:13.504Z,20.55
2023-03-21T11:42:48.266Z,18.08
2023-03-21T11:45:36.005Z,13.68
2023-03-21T11:48:13.032Z,15.50
2023-03-21T11:50:47.370Z,16.80
2023-03-21T11:53:29.176Z,15.57
2023-03-21T11:56:19.107Z,11.00
2023-03-21T11:58:51.494Z,7.05
2023-03-21T12:01:49.506Z,23.00
2023-03-21T12:04:44.485Z,18.15
2023-03-21T12:07:16.987Z,7.78
2023-03-21T12:09:48.591Z,19.17
2023-03-21T12:12:50.414Z,17.50
2023-03-21T12:15:22.780Z,18.83
2023-03-21T12:17:52.311Z,4.30
2023-03-21T12:20:48.327Z,6.90
2023-03-21T12:23:39.672Z,16.17
2023-03-21T12:26:18.474Z,15.68
2023-03-21T12:29:27.156Z,13.80
2023-03-21T12:32:21.510Z,7.65
2023-03-21T12:35:08.345Z,11.63
2023-03-21T12:37:52.025Z,7.60
2023-03-21T12:40:39.510Z,9.32
2023-03-21T12:43:12.049Z,7.90
2023-03-21T12:45:47.342Z,6.45
2023-03-21T12:48:32.975Z,12.80
2023-03-21T12:51:02.330Z,12.98
2023-03-21T12:53:42.896Z,8.93
2023-03-21T12:56:16.885Z,4.47
2023-03-21T12:58:52.338Z,11.75
2023-03-21T13:01:22.046Z,12.45
2023-03-21T13:04:08.111Z,13.32
2023-03-21T13:06:36.591Z,2.80
2023-03-21T13:09:13.000Z,5.03
2023-03-21T13:11:40.069Z,4.55
2023-03-21T13:14:08.927Z,7.38
2023-03-21T13:16:41.393Z,7.00
2023-03-21T13:19:16.599Z,8.43
2023-03-21T13:22:16.148Z,9.82
2023-03-21T13:24:49.667Z,5.85
2023-03-21T13:27:36.957Z,10.45
2023-03-21T13:30:07.328Z,5.85
2023-03-21T13:32:44.318Z,9.32
2023-03-21T13:35:15.946Z,6.18
2023-03-21T13:37:51.608Z,9.55
2023-03-21T13:40:22.317Z,8.75
2023-03-21T13:42:59.544Z,4.30
2023-03-21T13:45:44.866Z,12.45
2023-03-21T13:48:31.188Z,6.53
2023-03-21T13:51:05.676Z,5.18
2023-03-21T13:53:45.670Z,9.03
2023-03-21T13:56:12.076Z,9.63
2023-03-21T13:58:50.226Z,7.70
2023-03-21T14:01:26.913Z,6.15
2023-03-21T14:03:59.528Z,2.40
2023-03-21T14:06:36.197Z,10.63
2023-03-21T14:09:04.185Z,8.93
2023-03-21T14:11:33.507Z,9.00
2023-03-21T14:14:02.321Z,3.08
2023-03-21T14:16:29.854Z,5.65
2023-03-21T14:19:03.846Z,9.25
2023-03-21T14:21:33.053Z,7.88
2023-03-21T14:24:04.396Z,8.05
2023-03-21T14:26:34.381Z,5.05
2023-03-21T14:29:05.529Z,9.13
2023-03-21T14:31:34.076Z,3.58
2023-03-21T14:34:02.559Z,8.07
2023-03-21T14:36:32.882Z,4.90
2023-03-21T14:39:12.444Z,6.40
2023-03-21T14:41:51.575Z,6.18
2023-03-21T14:44:27.959Z,10.05
2023-03-21T14:47:17.611Z,9.20
2023-03-21T14:49:44.329Z,4.10
2023-03-21T14:52:20.499Z,7.32
2023-03-21T14:54:48.188Z,10.27
2023-03-21T14:57:20.725Z,2.75
2023-03-21T14:59:52.115Z,9.32
2023-03-21T15:02:23.639Z,9.20
2023-03-21T15:04:53.434Z,12.48
2023-03-21T15:07:37.984Z,3.33
2023-03-21T15:10:17.260Z,10.60
2023-03-21T15:12:55.390Z,10.60
2023-03-21T15:15:26.071Z,14.13
2023-03-21T15:17:56.871Z,7.25
2023-03-21T15:20:27.757Z,4.38
2023-03-21T15:23:03.567Z,6.90
2023-03-21T15:25:34.688Z,4.90
2023-03-21T15:28:02.035Z,7.28
2023-03-21T15:30:31.223Z,7.50
2023-03-21T15:33:05.376Z,7.07
2023-03-21T15:35:41.880Z,9.63
2023-03-21T15:38:22.665Z,7.18
2023-03-21T15:40:49.225Z,3.05
2023-03-21T15:43:16.784Z,5.53
2023-03-21T15:45:54.870Z,11.32
2023-03-21T15:48:26.392Z,4.45
2023-03-21T15:51:04.992Z,7.35
2023-03-21T15:53:33.688Z,4.90
2023-03-21T15:56:04.534Z,6.65
2023-03-21T15:58:43.955Z,5.63
2023-03-21T16:01:18.091Z,6.32
2023-03-21T16:03:47.941Z,6.88
2023-03-21T16:06:25.693Z,5.05
2023-03-21T16:09:03.425Z,9.40
2023-03-21T16:11:39.920Z,11.50
2023-03-21T16:14:07.076Z,15.65
2023-03-21T16:16:33.720Z,9.00
2023-03-21T16:19:01.399Z,6.05
2023-03-21T16:21:30.663Z,14.00
2023-03-21T16:23:58.159Z,7.28
2023-03-21T16:26:27.587Z,5.55
2023-03-21T16:28:54.930Z,8.35
2023-03-21T16:31:23.782Z,7.13
2023-03-21T16:33:51.465Z,6.13
2023-03-21T16:36:19.525Z,11.02
2023-03-21T16:38:47.658Z,10.48
2023-03-21T16:41:15.189Z,11.93
2023-03-21T16:43:45.460Z,10.55
2023-03-21T16:46:24.222Z,10.10
2023-03-21T16:48:53.591Z,6.35
2023-03-21T16:51:29.274Z,9.55
2023-03-21T16:53:57.262Z,12.52
2023-03-21T16:56:26.969Z,1.75
2023-03-21T16:58:54.477Z,4.28
2023-03-21T17:01:25.987Z,6.07
2023-03-21T17:03:53.591Z,9.23
2023-03-21T17:06:24.287Z,7.45
2023-03-21T17:08:51.840Z,17.85
2023-03-21T17:11:20.754Z,5.25
2023-03-21T17:13:52.480Z,8.27
2023-03-21T17:16:23.829Z,11.80
2023-03-21T17:18:51.679Z,8.32
2023-03-21T17:21:23.711Z,10.07
2023-03-21T17:23:52.367Z,9.00
2023-03-21T17:26:22.240Z,10.50
2023-03-21T17:28:53.639Z,12.07
2023-03-21T17:31:23.831Z,5.55
2023-03-21T17:33:51.189Z,8.13
2023-03-21T17:36:28.053Z,11.38
2023-03-21T17:38:55.418Z,9.25
2023-03-21T17:41:22.725Z,4.97
2023-03-21T17:43:50.956Z,18.30
2023-03-21T17:46:21.055Z,19.65
2023-03-21T17:48:48.127Z,15.35
2023-03-21T17:51:16.403Z,9.68
2023-03-21T17:53:44.387Z,14.88
2023-03-21T17:56:16.344Z,13.10
2023-03-21T17:58:42.963Z,13.32
2023-03-21T18:01:09.777Z,17.58
2023-03-21T18:03:36.325Z,15.18
2023-03-21T18:06:03.877Z,6.75
2023-03-21T18:08:30.354Z,14.73
2023-03-21T18:10:56.851Z,12.52
2023-03-21T18:13:23.837Z,2.47
2023-03-21T18:15:50.662Z,18.95
2023-03-21T18:18:17.268Z,17.17
2023-03-21T18:20:53.935Z,12.18
2023-03-21T18:23:21.218Z,16.15
2023-03-21T18:25:47.858Z,16.45
2023-03-21T18:28:19.451Z,14.95
2023-03-21T18:33:36.976Z,10.95
2023-03-21T18:36:07.535Z,6.13
2023-03-21T18:38:35.470Z,9.27
2023-03-21T18:41:02.003Z,12.60
2023-03-21T18:46:15.874Z,10.75
2023-03-21T18:48:42.778Z,13.07
2023-03-21T18:51:12.393Z,16.45
2023-03-21T18:53:39.265Z,15.45
2023-03-21T18:56:09.836Z,13.77
2023-03-21T18:58:37.284Z,8.20
2023-03-21T19:01:04.993Z,14.07
2023-03-21T19:03:36.757Z,14.30
2023-03-21T19:06:06.389Z,17.63
2023-03-21T19:08:36.984Z,14.55
2023-03-21T19:11:06.791Z,12.85
2023-03-21T19:13:34.470Z,17.80
2023-03-21T19:16:02.569Z,14.35
2023-03-21T19:18:50.341Z,9.38
2023-03-21T19:21:21.504Z,14.85
2023-03-21T19:24:23.002Z,17.27
2023-03-21T19:26:34.602Z,18.20
2023-03-21T19:29:01.282Z,19.25
2023-03-21T19:31:27.863Z,4.65
2023-03-21T19:33:54.546Z,18.55
2023-03-21T19:36:22.948Z,21.48
2023-03-21T19:38:50.416Z,22.13
2023-03-21T19:41:17.515Z,20.10
2023-03-21T19:43:53.552Z,21.42
2023-03-21T19:46:24.460Z,17.88
2023-03-21T19:48:51.627Z,17.35
2023-03-21T19:51:28.317Z,17.60
2023-03-21T19:53:56.269Z,15.57
2023-03-21T19:56:26.477Z,15.45
2023-03-21T19:58:54.665Z,15.48
2023-03-21T20:01:21.861Z,15.20
2023-03-21T20:03:48.489Z,13.77
2023-03-21T20:06:15.014Z,14.20
2023-03-21T20:11:28.170Z,14.88
2023-03-21T20:13:54.721Z,18.67
2023-03-21T20:16:21.466Z,23.02
2023-03-21T20:18:48.093Z,12.25
2023-03-21T20:21:17.917Z,17.48
2023-03-21T20:23:50.808Z,19.70
2023-03-21T20:26:17.692Z,13.35
2023-03-21T20:28:56.633Z,17.35
2023-03-21T20:31:32.699Z,20.05
2023-03-21T20:33:59.577Z,16.52
2023-03-21T20:36:40.063Z,15.95
2023-03-21T20:39:07.587Z,16.92
2023-03-21T20:41:34.153Z,14.63
2023-03-21T20:46:49.764Z,16.25
2023-03-21T20:49:16.436Z,13.93
2023-03-21T20:54:30.084Z,16.73
2023-03-21T20:56:57.200Z,16.27
2023-03-21T20:59:27.683Z,14.73
2023-03-21T21:01:58.010Z,15.65
2023-03-21T21:04:48.080Z,14.63
2023-03-21T21:07:20.370Z,13.65
2023-03-21T21:09:47.820Z,17.15
2023-03-21T21:12:16.349Z,15.27
2023-03-21T21:14:43.721Z,14.18
2023-03-21T21:17:28.326Z,15.02
2023-03-21T21:19:57.343Z,16.33
2023-03-21T21:22:23.896Z,15.15
2023-03-21T21:24:50.430Z,15.80
2023-03-21T21:27:16.993Z,13.45
2023-03-21T21:29:43.670Z,12.98
2023-03-21T21:32:11.368Z,14.93
2023-03-21T21:34:38.224Z,14.00
2023-03-21T21:37:05.185Z,12.88
2023-03-21T21:39:37.777Z,19.70
2023-03-21T21:42:05.095Z,17.65
2023-03-21T21:44:31.742Z,14.50
2023-03-21T21:46:58.276Z,13.23
2023-03-21T21:49:25.076Z,19.88
2023-03-21T21:51:51.627Z,19.58
2023-03-21T21:54:18.643Z,17.75
2023-03-21T21:56:48.486Z,17.38
2023-03-21T21:59:22.024Z,16.23
2023-03-21T22:01:51.317Z,12.95
2023-03-21T22:04:18.935Z,14.57
2023-03-21T22:06:47.509Z,16.95
2023-03-21T22:09:15.679Z,15.82
2023-03-21T22:11:42.275Z,15.75
2023-03-21T22:14:08.796Z,15.57
2023-03-21T22:16:35.324Z,16.52
2023-03-21T22:19:01.836Z,14.70
2023-03-21T22:21:28.397Z,13.38
2023-03-21T22:23:54.856Z,15.40
2023-03-21T22:26:21.470Z,15.68
2023-03-21T22:28:47.997Z,15.27
2023-03-21T22:31:16.059Z,17.15
2023-03-21T22:33:45.552Z,12.60
2023-03-21T22:36:12.198Z,15.48
2023-03-21T22:38:38.837Z,17.15
2023-03-21T22:41:06.602Z,14.63
2023-03-21T22:43:34.236Z,15.20
2023-03-21T22:46:03.251Z,12.80
2023-03-21T22:48:30.877Z,7.43
2023-03-21T22:50:58.953Z,12.85
2023-03-21T22:53:25.929Z,13.40
2023-03-21T22:55:52.407Z,14.95
2023-03-21T22:58:19.143Z,13.50
2023-03-21T23:00:46.040Z,8.45
2023-03-21T23:03:14.522Z,16.38
2023-03-21T23:05:42.073Z,14.82
2023-03-21T23:08:09.236Z,17.08
2023-03-21T23:10:40.923Z,2.10
2023-03-21T23:13:07.698Z,6.72
2023-03-21T23:15:34.375Z,13.52
2023-03-21T23:18:01.060Z,12.43
2023-03-21T23:20:27.781Z,3.35
2023-03-21T23:22:54.255Z,8.93
2023-03-21T23:25:21.035Z,13.60
2023-03-21T23:27:47.821Z,11.20
2023-03-21T23:30:14.555Z,5.07
2023-03-21T23:32:41.393Z,8.68
2023-03-21T23:35:08.766Z,14.18
2023-03-21T23:37:35.264Z,7.35
2023-03-21T23:40:02.227Z,5.25
2023-03-21T23:42:30.104Z,16.95
2023-03-21T23:44:57.240Z,14.07
2023-03-21T23:47:23.858Z,10.30
2023-03-21T23:49:52.798Z,11.50
2023-03-21T23:52:19.351Z,13.38
2023-03-21T23:54:45.832Z,9.57
2023-03-21T23:57:12.350Z,13.90
2023-03-21T23:59:38.809Z,6.22
